SLVR/VVI METAR and TAF weather

Enter ICAO airport designator
Station Type Date Time Source
SLVR METAR 2022/01/26 08:00 UTC NOAA

SLVR 260800Z 34012KT 9999 NSC 25/24 Q1008


Station Type Date Time Source
SLVR Decoded METAR 2022/01/26 08:00 UTC NOAA

Viru-Viru, Bolivia (SLVR) 17-38S 063-08W
Jan 26, 2022 - 03:00 AM EST / 2022.01.26 0800 UTC
Wind: from the NNW (340 degrees) at 14 MPH (12 KT):0
Visibility: greater than 7 mile(s):0
Temperature: 77 F (25 C)
Dew Point: 75 F (24 C)
Relative Humidity: 94%
Pressure (altimeter): 29.77 in. Hg (1008 hPa)
ob: SLVR 260800Z 34012KT 9999 NSC 25/24 Q1008
cycle: 8

Station Type Date Time Source
SLVR TAF 2022/01/26 06:25 UTC NOAA

TAF SLVR 260400Z 2606/2706 35005KT 9999 SCT015 TX36/2620Z TN23/2610Z
TEMPO 2608/2611 VRB02KT SCT013
BECMG 2614/2616 34015G25KT BKN020 FEW025TCU
BECMG 2623/2702 34010KT SCT015

Example: see airport list